sensor_id;sensor_type;location;lat;lon;timestamp;P1;durP1;ratioP1;P2;durP2;ratioP2
62990;SDS011;49084;48.204;16.202;2024-02-16T00:00:12;38.35;;;22.42;;
62990;SDS011;49084;48.204;16.202;2024-02-16T00:02:39;37.30;;;23.00;;
62990;SDS011;49084;48.204;16.202;2024-02-16T00:05:06;35.38;;;21.70;;
62990;SDS011;49084;48.204;16.202;2024-02-16T00:07:32;37.47;;;22.80;;
62990;SDS011;49084;48.204;16.202;2024-02-16T00:09:59;35.35;;;20.83;;
62990;SDS011;49084;48.204;16.202;2024-02-16T00:12:25;30.98;;;20.45;;
62990;SDS011;49084;48.204;16.202;2024-02-16T00:14:51;41.05;;;21.50;;
62990;SDS011;49084;48.204;16.202;2024-02-16T00:17:16;34.58;;;20.92;;
62990;SDS011;49084;48.204;16.202;2024-02-16T00:19:42;35.53;;;20.73;;
62990;SDS011;49084;48.204;16.202;2024-02-16T00:22:07;41.35;;;21.95;;
62990;SDS011;49084;48.204;16.202;2024-02-16T00:24:33;34.55;;;20.05;;
62990;SDS011;49084;48.204;16.202;2024-02-16T00:27:01;32.65;;;20.42;;
62990;SDS011;49084;48.204;16.202;2024-02-16T00:29:28;33.03;;;20.70;;
62990;SDS011;49084;48.204;16.202;2024-02-16T00:31:54;33.47;;;20.95;;
62990;SDS011;49084;48.204;16.202;2024-02-16T00:34:20;37.03;;;19.65;;
62990;SDS011;49084;48.204;16.202;2024-02-16T00:36:46;34.35;;;20.30;;
62990;SDS011;49084;48.204;16.202;2024-02-16T00:39:11;34.22;;;21.00;;
62990;SDS011;49084;48.204;16.202;2024-02-16T00:41:37;38.97;;;20.60;;
62990;SDS011;49084;48.204;16.202;2024-02-16T00:44:03;34.97;;;21.02;;
62990;SDS011;49084;48.204;16.202;2024-02-16T00:46:28;31.65;;;19.75;;
62990;SDS011;49084;48.204;16.202;2024-02-16T00:48:54;36.67;;;20.10;;
62990;SDS011;49084;48.204;16.202;2024-02-16T00:51:19;39.42;;;20.35;;
62990;SDS011;49084;48.204;16.202;2024-02-16T00:53:45;33.90;;;19.70;;
62990;SDS011;49084;48.204;16.202;2024-02-16T00:56:11;32.25;;;19.50;;
62990;SDS011;49084;48.204;16.202;2024-02-16T00:58:39;35.40;;;18.33;;
62990;SDS011;49084;48.204;16.202;2024-02-16T01:01:07;32.72;;;18.42;;
62990;SDS011;49084;48.204;16.202;2024-02-16T01:03:36;35.67;;;20.75;;
62990;SDS011;49084;48.204;16.202;2024-02-16T01:06:05;31.10;;;17.75;;
62990;SDS011;49084;48.204;16.202;2024-02-16T01:08:31;33.25;;;19.17;;
62990;SDS011;49084;48.204;16.202;2024-02-16T01:10:57;29.80;;;18.77;;
62990;SDS011;49084;48.204;16.202;2024-02-16T01:13:23;34.95;;;20.45;;
62990;SDS011;49084;48.204;16.202;2024-02-16T01:15:49;35.25;;;20.80;;
62990;SDS011;49084;48.204;16.202;2024-02-16T01:18:14;32.97;;;20.23;;
62990;SDS011;49084;48.204;16.202;2024-02-16T01:20:40;33.63;;;18.88;;
62990;SDS011;49084;48.204;16.202;2024-02-16T01:23:06;35.25;;;20.38;;
62990;SDS011;49084;48.204;16.202;2024-02-16T01:25:32;32.17;;;18.60;;
62990;SDS011;49084;48.204;16.202;2024-02-16T01:27:57;32.33;;;18.10;;
62990;SDS011;49084;48.204;16.202;2024-02-16T01:30:24;34.25;;;20.27;;
62990;SDS011;49084;48.204;16.202;2024-02-16T01:32:49;33.17;;;19.40;;
62990;SDS011;49084;48.204;16.202;2024-02-16T01:35:15;34.15;;;19.40;;
62990;SDS011;49084;48.204;16.202;2024-02-16T01:37:41;32.47;;;20.48;;
62990;SDS011;49084;48.204;16.202;2024-02-16T01:40:08;44.47;;;21.08;;
62990;SDS011;49084;48.204;16.202;2024-02-16T01:42:39;32.15;;;19.73;;
62990;SDS011;49084;48.204;16.202;2024-02-16T01:45:07;34.83;;;19.58;;
62990;SDS011;49084;48.204;16.202;2024-02-16T01:47:34;35.58;;;19.38;;
62990;SDS011;49084;48.204;16.202;2024-02-16T01:50:01;31.17;;;18.95;;
62990;SDS011;49084;48.204;16.202;2024-02-16T01:52:27;36.30;;;21.20;;
62990;SDS011;49084;48.204;16.202;2024-02-16T01:54:53;37.40;;;20.38;;
62990;SDS011;49084;48.204;16.202;2024-02-16T01:57:19;30.98;;;18.73;;
62990;SDS011;49084;48.204;16.202;2024-02-16T01:59:45;32.40;;;19.58;;
62990;SDS011;49084;48.204;16.202;2024-02-16T02:02:11;34.60;;;19.83;;
62990;SDS011;49084;48.204;16.202;2024-02-16T02:04:36;35.90;;;20.70;;
62990;SDS011;49084;48.204;16.202;2024-02-16T02:07:15;34.08;;;19.60;;
62990;SDS011;49084;48.204;16.202;2024-02-16T02:09:41;35.60;;;20.25;;
62990;SDS011;49084;48.204;16.202;2024-02-16T02:12:10;38.90;;;21.55;;
62990;SDS011;49084;48.204;16.202;2024-02-16T02:14:36;34.42;;;20.98;;
62990;SDS011;49084;48.204;16.202;2024-02-16T02:17:04;34.17;;;20.50;;
62990;SDS011;49084;48.204;16.202;2024-02-16T02:19:30;30.13;;;19.08;;
62990;SDS011;49084;48.204;16.202;2024-02-16T02:21:56;35.00;;;19.17;;
62990;SDS011;49084;48.204;16.202;2024-02-16T02:24:22;36.22;;;19.63;;
62990;SDS011;49084;48.204;16.202;2024-02-16T02:26:47;36.92;;;19.60;;
62990;SDS011;49084;48.204;16.202;2024-02-16T02:29:13;35.35;;;20.60;;
62990;SDS011;49084;48.204;16.202;2024-02-16T02:31:38;30.40;;;19.50;;
62990;SDS011;49084;48.204;16.202;2024-02-16T02:34:05;33.58;;;18.77;;
62990;SDS011;49084;48.204;16.202;2024-02-16T02:36:31;31.30;;;18.05;;
62990;SDS011;49084;48.204;16.202;2024-02-16T02:38:57;33.75;;;20.27;;
62990;SDS011;49084;48.204;16.202;2024-02-16T02:41:23;32.10;;;19.08;;
62990;SDS011;49084;48.204;16.202;2024-02-16T02:43:50;37.47;;;21.00;;
62990;SDS011;49084;48.204;16.202;2024-02-16T02:46:16;36.03;;;20.23;;
62990;SDS011;49084;48.204;16.202;2024-02-16T02:48:42;33.60;;;20.83;;
62990;SDS011;49084;48.204;16.202;2024-02-16T02:51:09;36.95;;;22.27;;
62990;SDS011;49084;48.204;16.202;2024-02-16T02:53:35;36.50;;;21.20;;
62990;SDS011;49084;48.204;16.202;2024-02-16T02:56:01;34.85;;;20.23;;
62990;SDS011;49084;48.204;16.202;2024-02-16T02:58:27;33.65;;;20.42;;
62990;SDS011;49084;48.204;16.202;2024-02-16T03:00:53;43.20;;;21.77;;
62990;SDS011;49084;48.204;16.202;2024-02-16T03:03:20;37.83;;;21.90;;
62990;SDS011;49084;48.204;16.202;2024-02-16T03:05:46;40.55;;;22.45;;
62990;SDS011;49084;48.204;16.202;2024-02-16T03:08:12;38.15;;;22.50;;
62990;SDS011;49084;48.204;16.202;2024-02-16T03:10:37;38.45;;;22.98;;
62990;SDS011;49084;48.204;16.202;2024-02-16T03:13:04;42.40;;;23.48;;
62990;SDS011;49084;48.204;16.202;2024-02-16T03:15:31;43.58;;;23.08;;
62990;SDS011;49084;48.204;16.202;2024-02-16T03:17:58;40.13;;;22.92;;
62990;SDS011;49084;48.204;16.202;2024-02-16T03:20:24;42.78;;;23.65;;
62990;SDS011;49084;48.204;16.202;2024-02-16T03:22:50;40.45;;;23.83;;
62990;SDS011;49084;48.204;16.202;2024-02-16T03:25:15;43.00;;;24.08;;
62990;SDS011;49084;48.204;16.202;2024-02-16T03:27:41;42.35;;;23.85;;
62990;SDS011;49084;48.204;16.202;2024-02-16T03:30:08;41.08;;;23.95;;
62990;SDS011;49084;48.204;16.202;2024-02-16T03:32:34;46.75;;;24.38;;
62990;SDS011;49084;48.204;16.202;2024-02-16T03:34:59;44.00;;;24.23;;
62990;SDS011;49084;48.204;16.202;2024-02-16T03:37:25;44.22;;;25.90;;
62990;SDS011;49084;48.204;16.202;2024-02-16T03:39:51;47.83;;;25.67;;
62990;SDS011;49084;48.204;16.202;2024-02-16T03:42:18;49.50;;;27.30;;
62990;SDS011;49084;48.204;16.202;2024-02-16T03:44:45;43.55;;;25.52;;
62990;SDS011;49084;48.204;16.202;2024-02-16T03:47:10;43.78;;;25.55;;
62990;SDS011;49084;48.204;16.202;2024-02-16T03:49:36;45.85;;;25.95;;
62990;SDS011;49084;48.204;16.202;2024-02-16T03:52:02;44.15;;;25.05;;
62990;SDS011;49084;48.204;16.202;2024-02-16T03:54:28;46.90;;;26.02;;
62990;SDS011;49084;48.204;16.202;2024-02-16T03:56:54;48.45;;;26.40;;
62990;SDS011;49084;48.204;16.202;2024-02-16T03:59:20;47.35;;;26.42;;
62990;SDS011;49084;48.204;16.202;2024-02-16T04:01:46;47.65;;;27.20;;
62990;SDS011;49084;48.204;16.202;2024-02-16T04:04:12;49.05;;;25.55;;
62990;SDS011;49084;48.204;16.202;2024-02-16T04:06:38;48.63;;;25.25;;
62990;SDS011;49084;48.204;16.202;2024-02-16T04:09:04;49.08;;;25.70;;
62990;SDS011;49084;48.204;16.202;2024-02-16T04:11:33;45.55;;;24.73;;
62990;SDS011;49084;48.204;16.202;2024-02-16T04:14:00;47.10;;;25.38;;
62990;SDS011;49084;48.204;16.202;2024-02-16T04:16:26;44.67;;;25.85;;
62990;SDS011;49084;48.204;16.202;2024-02-16T04:18:51;43.15;;;25.25;;
62990;SDS011;49084;48.204;16.202;2024-02-16T04:21:17;42.97;;;24.35;;
62990;SDS011;49084;48.204;16.202;2024-02-16T04:23:43;44.47;;;25.17;;
62990;SDS011;49084;48.204;16.202;2024-02-16T04:26:09;45.00;;;24.55;;
62990;SDS011;49084;48.204;16.202;2024-02-16T04:28:35;44.15;;;24.50;;
62990;SDS011;49084;48.204;16.202;2024-02-16T04:31:01;46.05;;;24.88;;
62990;SDS011;49084;48.204;16.202;2024-02-16T04:33:27;38.83;;;23.23;;
62990;SDS011;49084;48.204;16.202;2024-02-16T04:35:52;46.20;;;22.88;;
62990;SDS011;49084;48.204;16.202;2024-02-16T04:38:18;42.10;;;22.23;;
62990;SDS011;49084;48.204;16.202;2024-02-16T04:40:44;35.65;;;21.70;;
62990;SDS011;49084;48.204;16.202;2024-02-16T04:43:10;39.63;;;22.40;;
62990;SDS011;49084;48.204;16.202;2024-02-16T04:45:36;35.83;;;20.67;;
62990;SDS011;49084;48.204;16.202;2024-02-16T04:48:05;39.80;;;22.23;;
62990;SDS011;49084;48.204;16.202;2024-02-16T04:50:31;36.45;;;21.02;;
62990;SDS011;49084;48.204;16.202;2024-02-16T04:52:57;37.00;;;22.38;;
62990;SDS011;49084;48.204;16.202;2024-02-16T04:55:23;35.35;;;20.80;;
62990;SDS011;49084;48.204;16.202;2024-02-16T04:57:48;41.17;;;21.15;;
62990;SDS011;49084;48.204;16.202;2024-02-16T05:00:14;35.78;;;20.52;;
62990;SDS011;49084;48.204;16.202;2024-02-16T05:02:40;39.97;;;21.48;;
62990;SDS011;49084;48.204;16.202;2024-02-16T05:05:06;33.17;;;19.92;;
62990;SDS011;49084;48.204;16.202;2024-02-16T05:07:32;35.45;;;20.77;;
62990;SDS011;49084;48.204;16.202;2024-02-16T05:09:58;42.30;;;19.80;;
62990;SDS011;49084;48.204;16.202;2024-02-16T05:12:24;35.97;;;19.30;;
62990;SDS011;49084;48.204;16.202;2024-02-16T05:14:50;37.30;;;19.42;;
62990;SDS011;49084;48.204;16.202;2024-02-16T05:17:17;34.78;;;20.60;;
62990;SDS011;49084;48.204;16.202;2024-02-16T05:19:43;36.67;;;20.05;;
62990;SDS011;49084;48.204;16.202;2024-02-16T05:22:09;36.15;;;20.23;;
62990;SDS011;49084;48.204;16.202;2024-02-16T05:24:35;37.70;;;19.83;;
62990;SDS011;49084;48.204;16.202;2024-02-16T05:27:01;35.45;;;20.35;;
62990;SDS011;49084;48.204;16.202;2024-02-16T05:29:26;35.13;;;20.70;;
62990;SDS011;49084;48.204;16.202;2024-02-16T05:31:52;44.08;;;20.00;;
62990;SDS011;49084;48.204;16.202;2024-02-16T05:34:18;37.17;;;20.17;;
62990;SDS011;49084;48.204;16.202;2024-02-16T05:36:44;34.25;;;19.73;;
62990;SDS011;49084;48.204;16.202;2024-02-16T05:39:10;39.13;;;21.50;;
62990;SDS011;49084;48.204;16.202;2024-02-16T05:41:46;38.33;;;19.42;;
62990;SDS011;49084;48.204;16.202;2024-02-16T05:44:12;30.73;;;19.33;;
62990;SDS011;49084;48.204;16.202;2024-02-16T05:46:38;36.70;;;20.65;;
62990;SDS011;49084;48.204;16.202;2024-02-16T05:49:04;36.10;;;20.50;;
62990;SDS011;49084;48.204;16.202;2024-02-16T05:51:39;33.42;;;19.40;;
62990;SDS011;49084;48.204;16.202;2024-02-16T05:54:06;38.00;;;19.42;;
62990;SDS011;49084;48.204;16.202;2024-02-16T05:56:33;34.75;;;18.75;;
62990;SDS011;49084;48.204;16.202;2024-02-16T05:58:59;34.72;;;21.17;;
62990;SDS011;49084;48.204;16.202;2024-02-16T06:01:25;31.92;;;18.67;;
62990;SDS011;49084;48.204;16.202;2024-02-16T06:03:52;33.63;;;19.92;;
62990;SDS011;49084;48.204;16.202;2024-02-16T06:06:18;39.90;;;19.85;;
62990;SDS011;49084;48.204;16.202;2024-02-16T06:08:44;32.35;;;18.42;;
62990;SDS011;49084;48.204;16.202;2024-02-16T06:11:09;31.23;;;18.55;;
62990;SDS011;49084;48.204;16.202;2024-02-16T06:13:35;33.58;;;18.92;;
62990;SDS011;49084;48.204;16.202;2024-02-16T06:16:01;33.10;;;17.90;;
62990;SDS011;49084;48.204;16.202;2024-02-16T06:18:29;30.30;;;16.83;;
62990;SDS011;49084;48.204;16.202;2024-02-16T06:20:55;30.90;;;18.42;;
62990;SDS011;49084;48.204;16.202;2024-02-16T06:23:20;37.55;;;18.83;;
62990;SDS011;49084;48.204;16.202;2024-02-16T06:25:46;36.08;;;18.75;;
62990;SDS011;49084;48.204;16.202;2024-02-16T06:28:12;29.73;;;17.45;;
62990;SDS011;49084;48.204;16.202;2024-02-16T06:30:37;31.60;;;18.33;;
62990;SDS011;49084;48.204;16.202;2024-02-16T06:33:03;32.28;;;18.92;;
62990;SDS011;49084;48.204;16.202;2024-02-16T06:35:29;33.78;;;19.20;;
62990;SDS011;49084;48.204;16.202;2024-02-16T06:37:55;34.22;;;19.08;;
62990;SDS011;49084;48.204;16.202;2024-02-16T06:40:21;30.17;;;19.17;;
62990;SDS011;49084;48.204;16.202;2024-02-16T06:42:47;33.85;;;17.88;;
62990;SDS011;49084;48.204;16.202;2024-02-16T06:45:12;28.85;;;17.55;;
62990;SDS011;49084;48.204;16.202;2024-02-16T06:47:38;31.13;;;16.67;;
62990;SDS011;49084;48.204;16.202;2024-02-16T06:50:04;31.25;;;15.98;;
62990;SDS011;49084;48.204;16.202;2024-02-16T06:52:30;28.05;;;17.25;;
62990;SDS011;49084;48.204;16.202;2024-02-16T06:54:55;27.65;;;16.55;;
62990;SDS011;49084;48.204;16.202;2024-02-16T06:57:21;29.65;;;16.92;;
62990;SDS011;49084;48.204;16.202;2024-02-16T06:59:47;28.27;;;15.52;;
62990;SDS011;49084;48.204;16.202;2024-02-16T07:02:12;28.25;;;15.98;;
62990;SDS011;49084;48.204;16.202;2024-02-16T07:04:40;29.00;;;15.40;;
62990;SDS011;49084;48.204;16.202;2024-02-16T07:07:05;31.02;;;16.65;;
62990;SDS011;49084;48.204;16.202;2024-02-16T07:09:31;25.92;;;16.45;;
62990;SDS011;49084;48.204;16.202;2024-02-16T07:11:57;34.38;;;17.90;;
62990;SDS011;49084;48.204;16.202;2024-02-16T07:14:24;24.40;;;14.38;;
62990;SDS011;49084;48.204;16.202;2024-02-16T07:16:49;26.60;;;14.85;;
62990;SDS011;49084;48.204;16.202;2024-02-16T07:19:15;21.52;;;13.05;;
62990;SDS011;49084;48.204;16.202;2024-02-16T07:21:43;20.40;;;12.65;;
62990;SDS011;49084;48.204;16.202;2024-02-16T07:24:09;19.15;;;12.35;;
62990;SDS011;49084;48.204;16.202;2024-02-16T07:26:35;18.75;;;11.18;;
62990;SDS011;49084;48.204;16.202;2024-02-16T07:29:01;18.08;;;11.52;;
62990;SDS011;49084;48.204;16.202;2024-02-16T07:31:32;15.60;;;9.88;;
62990;SDS011;49084;48.204;16.202;2024-02-16T07:33:59;20.30;;;8.40;;
62990;SDS011;49084;48.204;16.202;2024-02-16T07:36:25;14.82;;;8.85;;
62990;SDS011;49084;48.204;16.202;2024-02-16T07:38:50;13.25;;;8.93;;
62990;SDS011;49084;48.204;16.202;2024-02-16T07:41:16;14.32;;;8.70;;
62990;SDS011;49084;48.204;16.202;2024-02-16T07:43:42;12.23;;;8.30;;
62990;SDS011;49084;48.204;16.202;2024-02-16T07:46:07;16.40;;;8.40;;
62990;SDS011;49084;48.204;16.202;2024-02-16T07:48:33;12.77;;;8.20;;
62990;SDS011;49084;48.204;16.202;2024-02-16T07:51:00;10.95;;;7.50;;
62990;SDS011;49084;48.204;16.202;2024-02-16T07:53:27;14.45;;;8.65;;
62990;SDS011;49084;48.204;16.202;2024-02-16T07:55:53;12.23;;;7.95;;
62990;SDS011;49084;48.204;16.202;2024-02-16T07:58:19;10.43;;;7.10;;
62990;SDS011;49084;48.204;16.202;2024-02-16T08:00:45;11.07;;;7.75;;
62990;SDS011;49084;48.204;16.202;2024-02-16T08:03:10;12.30;;;7.10;;
62990;SDS011;49084;48.204;16.202;2024-02-16T08:05:36;12.88;;;6.90;;
62990;SDS011;49084;48.204;16.202;2024-02-16T08:08:02;14.02;;;7.22;;
62990;SDS011;49084;48.204;16.202;2024-02-16T08:10:28;8.57;;;6.40;;
62990;SDS011;49084;48.204;16.202;2024-02-16T08:12:54;12.07;;;7.07;;
62990;SDS011;49084;48.204;16.202;2024-02-16T08:15:19;10.02;;;5.85;;
62990;SDS011;49084;48.204;16.202;2024-02-16T08:17:48;11.25;;;6.93;;
62990;SDS011;49084;48.204;16.202;2024-02-16T08:20:15;12.10;;;6.85;;
62990;SDS011;49084;48.204;16.202;2024-02-16T08:22:41;10.40;;;6.32;;
62990;SDS011;49084;48.204;16.202;2024-02-16T08:25:07;10.10;;;6.95;;
62990;SDS011;49084;48.204;16.202;2024-02-16T08:27:33;13.00;;;5.93;;
62990;SDS011;49084;48.204;16.202;2024-02-16T08:29:59;9.68;;;6.13;;
62990;SDS011;49084;48.204;16.202;2024-02-16T08:32:26;11.48;;;6.20;;
62990;SDS011;49084;48.204;16.202;2024-02-16T08:34:53;9.20;;;6.03;;
62990;SDS011;49084;48.204;16.202;2024-02-16T08:37:21;11.43;;;7.07;;
62990;SDS011;49084;48.204;16.202;2024-02-16T08:39:47;9.57;;;5.75;;
62990;SDS011;49084;48.204;16.202;2024-02-16T08:42:13;11.18;;;6.63;;
62990;SDS011;49084;48.204;16.202;2024-02-16T08:44:38;8.07;;;5.30;;
62990;SDS011;49084;48.204;16.202;2024-02-16T08:47:06;7.95;;;5.75;;
62990;SDS011;49084;48.204;16.202;2024-02-16T08:49:32;15.73;;;5.75;;
62990;SDS011;49084;48.204;16.202;2024-02-16T08:51:59;8.10;;;5.35;;
62990;SDS011;49084;48.204;16.202;2024-02-16T08:54:24;6.53;;;5.13;;
62990;SDS011;49084;48.204;16.202;2024-02-16T08:56:50;7.38;;;5.35;;
62990;SDS011;49084;48.204;16.202;2024-02-16T08:59:18;8.65;;;4.93;;
62990;SDS011;49084;48.204;16.202;2024-02-16T09:01:43;8.35;;;5.22;;
62990;SDS011;49084;48.204;16.202;2024-02-16T09:04:09;9.77;;;4.75;;
62990;SDS011;49084;48.204;16.202;2024-02-16T09:06:35;9.52;;;5.15;;
62990;SDS011;49084;48.204;16.202;2024-02-16T09:09:00;12.95;;;5.53;;
62990;SDS011;49084;48.204;16.202;2024-02-16T09:11:27;5.75;;;4.53;;
62990;SDS011;49084;48.204;16.202;2024-02-16T09:13:55;10.52;;;5.30;;
62990;SDS011;49084;48.204;16.202;2024-02-16T09:16:21;10.77;;;5.55;;
62990;SDS011;49084;48.204;16.202;2024-02-16T09:18:46;7.43;;;4.93;;
62990;SDS011;49084;48.204;16.202;2024-02-16T09:21:15;7.43;;;5.25;;
62990;SDS011;49084;48.204;16.202;2024-02-16T09:23:41;6.50;;;4.32;;
62990;SDS011;49084;48.204;16.202;2024-02-16T09:26:07;10.25;;;4.25;;
62990;SDS011;49084;48.204;16.202;2024-02-16T09:28:38;6.15;;;4.38;;
62990;SDS011;49084;48.204;16.202;2024-02-16T09:31:08;10.27;;;4.35;;
62990;SDS011;49084;48.204;16.202;2024-02-16T09:33:33;7.45;;;4.25;;
62990;SDS011;49084;48.204;16.202;2024-02-16T09:36:00;6.45;;;4.32;;
62990;SDS011;49084;48.204;16.202;2024-02-16T09:38:25;8.15;;;4.63;;
62990;SDS011;49084;48.204;16.202;2024-02-16T09:40:51;8.52;;;4.20;;
62990;SDS011;49084;48.204;16.202;2024-02-16T09:43:26;4.57;;;3.95;;
62990;SDS011;49084;48.204;16.202;2024-02-16T09:45:56;6.30;;;4.30;;
62990;SDS011;49084;48.204;16.202;2024-02-16T09:48:23;4.82;;;3.63;;
62990;SDS011;49084;48.204;16.202;2024-02-16T09:50:50;5.70;;;3.90;;
62990;SDS011;49084;48.204;16.202;2024-02-16T09:53:24;4.47;;;3.80;;
62990;SDS011;49084;48.204;16.202;2024-02-16T09:55:51;4.65;;;4.13;;
62990;SDS011;49084;48.204;16.202;2024-02-16T09:58:17;9.27;;;4.03;;
62990;SDS011;49084;48.204;16.202;2024-02-16T10:00:50;5.20;;;3.70;;
62990;SDS011;49084;48.204;16.202;2024-02-16T10:03:23;5.97;;;4.18;;
62990;SDS011;49084;48.204;16.202;2024-02-16T10:05:50;7.05;;;3.22;;
62990;SDS011;49084;48.204;16.202;2024-02-16T10:08:16;6.93;;;3.38;;
62990;SDS011;49084;48.204;16.202;2024-02-16T10:10:42;3.50;;;3.08;;
62990;SDS011;49084;48.204;16.202;2024-02-16T10:13:08;5.50;;;3.50;;
62990;SDS011;49084;48.204;16.202;2024-02-16T10:15:34;7.18;;;2.70;;
62990;SDS011;49084;48.204;16.202;2024-02-16T10:18:00;3.22;;;2.92;;
62990;SDS011;49084;48.204;16.202;2024-02-16T10:20:27;4.93;;;2.70;;
62990;SDS011;49084;48.204;16.202;2024-02-16T10:23:04;3.63;;;2.78;;
62990;SDS011;49084;48.204;16.202;2024-02-16T10:25:34;4.53;;;2.40;;
62990;SDS011;49084;48.204;16.202;2024-02-16T10:28:05;5.18;;;2.83;;
62990;SDS011;49084;48.204;16.202;2024-02-16T10:30:38;3.25;;;2.58;;
62990;SDS011;49084;48.204;16.202;2024-02-16T10:33:05;4.38;;;2.80;;
62990;SDS011;49084;48.204;16.202;2024-02-16T10:35:35;5.10;;;2.45;;
62990;SDS011;49084;48.204;16.202;2024-02-16T10:38:02;12.98;;;2.25;;
62990;SDS011;49084;48.204;16.202;2024-02-16T10:40:34;5.57;;;2.13;;
62990;SDS011;49084;48.204;16.202;2024-02-16T10:43:03;2.10;;;1.80;;
62990;SDS011;49084;48.204;16.202;2024-02-16T10:45:33;2.75;;;2.13;;
62990;SDS011;49084;48.204;16.202;2024-02-16T10:48:01;2.85;;;1.98;;
62990;SDS011;49084;48.204;16.202;2024-02-16T10:50:28;2.25;;;2.00;;
62990;SDS011;49084;48.204;16.202;2024-02-16T10:52:54;3.35;;;1.90;;
62990;SDS011;49084;48.204;16.202;2024-02-16T10:55:23;6.07;;;2.17;;
62990;SDS011;49084;48.204;16.202;2024-02-16T10:57:49;2.38;;;2.05;;
62990;SDS011;49084;48.204;16.202;2024-02-16T11:00:15;2.08;;;1.73;;
62990;SDS011;49084;48.204;16.202;2024-02-16T11:02:51;2.40;;;1.95;;
62990;SDS011;49084;48.204;16.202;2024-02-16T11:08:11;4.45;;;1.98;;
62990;SDS011;49084;48.204;16.202;2024-02-16T11:10:38;3.05;;;1.77;;
62990;SDS011;49084;48.204;16.202;2024-02-16T11:13:04;9.63;;;2.03;;
62990;SDS011;49084;48.204;16.202;2024-02-16T11:15:33;2.75;;;1.90;;
62990;SDS011;49084;48.204;16.202;2024-02-16T11:18:01;5.20;;;2.25;;
62990;SDS011;49084;48.204;16.202;2024-02-16T11:20:28;4.25;;;1.95;;
62990;SDS011;49084;48.204;16.202;2024-02-16T11:23:04;6.13;;;2.28;;
62990;SDS011;49084;48.204;16.202;2024-02-16T11:25:32;3.55;;;1.80;;
62990;SDS011;49084;48.204;16.202;2024-02-16T11:27:58;6.40;;;2.08;;
62990;SDS011;49084;48.204;16.202;2024-02-16T11:30:24;2.58;;;1.60;;
62990;SDS011;49084;48.204;16.202;2024-02-16T11:32:53;1.88;;;1.50;;
62990;SDS011;49084;48.204;16.202;2024-02-16T11:37:44;3.70;;;1.83;;
62990;SDS011;49084;48.204;16.202;2024-02-16T11:40:12;2.50;;;1.55;;
62990;SDS011;49084;48.204;16.202;2024-02-16T11:42:38;2.63;;;1.45;;
62990;SDS011;49084;48.204;16.202;2024-02-16T11:45:04;2.38;;;1.38;;
62990;SDS011;49084;48.204;16.202;2024-02-16T11:47:31;3.53;;;1.45;;
62990;SDS011;49084;48.204;16.202;2024-02-16T11:50:03;1.55;;;1.42;;
62990;SDS011;49084;48.204;16.202;2024-02-16T11:52:30;3.97;;;1.85;;
62990;SDS011;49084;48.204;16.202;2024-02-16T11:54:55;1.67;;;1.20;;
62990;SDS011;49084;48.204;16.202;2024-02-16T11:57:21;2.17;;;1.30;;
62990;SDS011;49084;48.204;16.202;2024-02-16T11:59:48;1.52;;;1.10;;
62990;SDS011;49084;48.204;16.202;2024-02-16T12:02:17;2.88;;;1.50;;
62990;SDS011;49084;48.204;16.202;2024-02-16T12:04:47;1.95;;;1.42;;
62990;SDS011;49084;48.204;16.202;2024-02-16T12:07:13;3.85;;;1.40;;
62990;SDS011;49084;48.204;16.202;2024-02-16T12:09:39;2.38;;;1.35;;
62990;SDS011;49084;48.204;16.202;2024-02-16T12:12:05;2.20;;;1.55;;
62990;SDS011;49084;48.204;16.202;2024-02-16T12:14:31;2.78;;;1.30;;
62990;SDS011;49084;48.204;16.202;2024-02-16T12:16:58;1.67;;;1.58;;
62990;SDS011;49084;48.204;16.202;2024-02-16T12:19:24;3.30;;;1.50;;
62990;SDS011;49084;48.204;16.202;2024-02-16T12:21:54;2.30;;;1.10;;
62990;SDS011;49084;48.204;16.202;2024-02-16T12:24:22;2.60;;;1.27;;
62990;SDS011;49084;48.204;16.202;2024-02-16T12:26:48;1.38;;;1.27;;
62990;SDS011;49084;48.204;16.202;2024-02-16T12:29:14;1.35;;;1.23;;
62990;SDS011;49084;48.204;16.202;2024-02-16T12:31:41;2.72;;;1.73;;
62990;SDS011;49084;48.204;16.202;2024-02-16T12:34:09;1.10;;;1.00;;
62990;SDS011;49084;48.204;16.202;2024-02-16T12:36:36;1.10;;;1.00;;
62990;SDS011;49084;48.204;16.202;2024-02-16T12:39:03;1.80;;;0.77;;
62990;SDS011;49084;48.204;16.202;2024-02-16T12:41:32;4.78;;;0.90;;
62990;SDS011;49084;48.204;16.202;2024-02-16T12:43:59;1.77;;;0.88;;
62990;SDS011;49084;48.204;16.202;2024-02-16T12:46:25;1.42;;;1.00;;
62990;SDS011;49084;48.204;16.202;2024-02-16T12:48:50;2.60;;;0.80;;
62990;SDS011;49084;48.204;16.202;2024-02-16T12:51:17;0.93;;;0.73;;
62990;SDS011;49084;48.204;16.202;2024-02-16T12:53:43;1.70;;;0.82;;
62990;SDS011;49084;48.204;16.202;2024-02-16T12:56:09;1.98;;;1.33;;
62990;SDS011;49084;48.204;16.202;2024-02-16T12:58:38;2.08;;;1.02;;
62990;SDS011;49084;48.204;16.202;2024-02-16T13:01:04;0.98;;;0.98;;
62990;SDS011;49084;48.204;16.202;2024-02-16T13:03:34;1.27;;;1.10;;
62990;SDS011;49084;48.204;16.202;2024-02-16T13:06:00;1.80;;;1.17;;
62990;SDS011;49084;48.204;16.202;2024-02-16T13:08:26;1.40;;;1.30;;
62990;SDS011;49084;48.204;16.202;2024-02-16T13:10:52;1.30;;;1.20;;
62990;SDS011;49084;48.204;16.202;2024-02-16T13:13:17;1.67;;;1.30;;
62990;SDS011;49084;48.204;16.202;2024-02-16T13:15:43;2.53;;;1.40;;
62990;SDS011;49084;48.204;16.202;2024-02-16T13:18:09;1.80;;;1.45;;
62990;SDS011;49084;48.204;16.202;2024-02-16T13:20:34;1.20;;;1.08;;
62990;SDS011;49084;48.204;16.202;2024-02-16T13:23:00;2.15;;;1.20;;
62990;SDS011;49084;48.204;16.202;2024-02-16T13:25:26;3.83;;;1.48;;
62990;SDS011;49084;48.204;16.202;2024-02-16T13:27:52;3.97;;;1.70;;
62990;SDS011;49084;48.204;16.202;2024-02-16T13:30:17;2.70;;;1.33;;
62990;SDS011;49084;48.204;16.202;2024-02-16T13:32:43;3.75;;;1.30;;
62990;SDS011;49084;48.204;16.202;2024-02-16T13:35:09;1.77;;;1.30;;
62990;SDS011;49084;48.204;16.202;2024-02-16T13:37:34;3.47;;;1.65;;
62990;SDS011;49084;48.204;16.202;2024-02-16T13:40:00;2.03;;;1.33;;
62990;SDS011;49084;48.204;16.202;2024-02-16T13:42:29;2.38;;;1.23;;
62990;SDS011;49084;48.204;16.202;2024-02-16T13:44:56;2.28;;;1.27;;
62990;SDS011;49084;48.204;16.202;2024-02-16T13:47:21;1.10;;;1.10;;
62990;SDS011;49084;48.204;16.202;2024-02-16T13:49:48;3.60;;;1.40;;
62990;SDS011;49084;48.204;16.202;2024-02-16T13:52:14;1.90;;;1.50;;
62990;SDS011;49084;48.204;16.202;2024-02-16T13:54:40;3.03;;;1.40;;
62990;SDS011;49084;48.204;16.202;2024-02-16T13:57:05;3.28;;;1.30;;
62990;SDS011;49084;48.204;16.202;2024-02-16T13:59:31;3.17;;;1.42;;
62990;SDS011;49084;48.204;16.202;2024-02-16T14:01:58;1.88;;;1.73;;
62990;SDS011;49084;48.204;16.202;2024-02-16T14:04:24;2.42;;;1.23;;
62990;SDS011;49084;48.204;16.202;2024-02-16T14:06:51;3.30;;;1.80;;
62990;SDS011;49084;48.204;16.202;2024-02-16T14:09:17;2.88;;;1.67;;
62990;SDS011;49084;48.204;16.202;2024-02-16T14:11:46;2.95;;;1.88;;
62990;SDS011;49084;48.204;16.202;2024-02-16T14:14:12;2.50;;;1.60;;
62990;SDS011;49084;48.204;16.202;2024-02-16T14:16:37;4.82;;;1.48;;
62990;SDS011;49084;48.204;16.202;2024-02-16T14:19:03;2.22;;;1.80;;